Time,TemperatureF,DewpointF,PressureIn,WindDirection,WindDirectionDegrees,WindSpeedMPH,WindSpeedGustMPH,Humidity,HourlyPrecipIn,Conditions,Clouds,dailyrainin,SolarRadiationWatts/m^2,SoftwareType,DateUTC
2013-06-15 00:12:00,75.0,70.0,-100.00,North,5,2.0,6.0,84,0.00,,,0.20,0.000000,,2013-06-15 05:12:00,
2013-06-15 00:22:00,75.0,70.0,-100.00,North,5,2.0,6.0,84,0.00,,,0.20,0.000000,,2013-06-15 05:22:00,
2013-06-15 00:34:00,75.0,70.0,-100.00,North,5,2.0,6.0,84,0.00,,,0.20,0.000000,,2013-06-15 05:34:00,
2013-06-15 00:43:00,75.0,70.0,-100.00,North,5,2.0,6.0,84,0.00,,,0.20,0.000000,,2013-06-15 05:43:00,
2013-06-15 00:51:00,72.0,69.0,-100.00,NNE,15,0.0,3.0,89,0.00,,,0.20,0.000000,,2013-06-15 05:51:00,
2013-06-15 01:12:00,72.0,69.0,-100.00,NNE,15,0.0,3.0,89,0.00,,,0.20,0.000000,,2013-06-15 06:12:00,
2013-06-15 01:24:00,72.0,69.0,-100.00,NNE,15,0.0,3.0,89,0.00,,,0.20,0.000000,,2013-06-15 06:24:00,
2013-06-15 01:33:00,72.0,69.0,-100.00,NNE,15,0.0,3.0,89,0.00,,,0.20,0.000000,,2013-06-15 06:33:00,
2013-06-15 01:43:00,72.0,69.0,-100.00,NNE,15,0.0,3.0,89,0.00,,,0.20,0.000000,,2013-06-15 06:43:00,
2013-06-15 01:51:00,71.0,69.0,-100.00,NW,316,2.0,2.0,93,0.00,,,0.20,0.000000,,2013-06-15 06:51:00,
2013-06-15 02:11:00,71.0,69.0,-100.00,NW,316,2.0,2.0,93,0.00,,,0.20,0.000000,,2013-06-15 07:11:00,
2013-06-15 02:23:00,71.0,69.0,-100.00,NW,316,2.0,2.0,93,0.00,,,0.20,0.000000,,2013-06-15 07:23:00,
2013-06-15 02:33:00,71.0,69.0,-100.00,NW,316,2.0,2.0,93,0.00,,,0.20,0.000000,,2013-06-15 07:33:00,
2013-06-15 02:43:00,71.0,69.0,-100.00,NW,316,2.0,2.0,93,0.00,,,0.20,0.000000,,2013-06-15 07:43:00,
2013-06-15 02:51:00,70.0,68.0,-100.00,NNE,17,1.0,2.0,95,0.00,,,0.20,0.000000,,2013-06-15 07:51:00,
2013-06-15 03:11:00,70.0,68.0,-100.00,NNE,17,1.0,2.0,95,0.00,,,0.20,0.000000,,2013-06-15 08:11:00,
2013-06-15 03:22:00,70.0,68.0,-100.00,NNE,17,1.0,2.0,95,0.00,,,0.20,0.000000,,2013-06-15 08:22:00,
2013-06-15 03:33:00,70.0,68.0,-100.00,NNE,17,1.0,2.0,95,0.00,,,0.20,0.000000,,2013-06-15 08:33:00,
2013-06-15 03:42:00,70.0,68.0,-100.00,NNE,17,1.0,2.0,95,0.00,,,0.20,0.000000,,2013-06-15 08:42:00,
2013-06-15 03:51:00,69.0,68.0,-100.00,North,357,0.0,3.0,96,0.00,,,0.20,0.000000,,2013-06-15 08:51:00,
2013-06-15 04:12:00,69.0,68.0,-100.00,North,357,0.0,3.0,96,0.00,,,0.20,0.000000,,2013-06-15 09:12:00,
2013-06-15 04:22:00,69.0,68.0,-100.00,North,357,0.0,3.0,96,0.00,,,0.20,0.000000,,2013-06-15 09:22:00,
2013-06-15 04:33:00,69.0,68.0,-100.00,North,357,0.0,3.0,96,0.00,,,0.20,0.000000,,2013-06-15 09:33:00,
2013-06-15 04:43:00,69.0,68.0,-100.00,North,357,0.0,3.0,96,0.00,,,0.20,0.000000,,2013-06-15 09:43:00,
2013-06-15 04:51:00,69.0,68.0,-100.00,ENE,62,0.0,3.0,95,0.00,,,0.20,0.000000,,2013-06-15 09:51:00,
2013-06-15 05:11:00,69.0,68.0,-100.00,ENE,62,0.0,3.0,95,0.00,,,0.20,0.000000,,2013-06-15 10:11:00,
2013-06-15 05:23:00,69.0,68.0,-100.00,ENE,62,0.0,3.0,95,0.00,,,0.20,0.000000,,2013-06-15 10:23:00,
2013-06-15 05:33:00,69.0,68.0,-100.00,ENE,62,0.0,3.0,95,0.00,,,0.20,0.000000,,2013-06-15 10:33:00,
2013-06-15 05:44:00,69.0,68.0,-100.00,ENE,62,0.0,3.0,95,0.00,,,0.20,0.000000,,2013-06-15 10:44:00,
2013-06-15 05:51:00,68.0,67.0,-100.00,North,349,1.0,3.0,97,0.00,,,0.17,1.000000,,2013-06-15 10:51:00,
2013-06-15 06:11:00,68.0,67.0,-100.00,North,349,1.0,3.0,97,0.00,,,0.17,1.000000,,2013-06-15 11:11:00,
2013-06-15 06:22:00,68.0,67.0,-100.00,North,349,1.0,3.0,97,0.00,,,0.17,1.000000,,2013-06-15 11:22:00,
2013-06-15 06:33:00,68.0,67.0,-100.00,North,349,1.0,3.0,97,0.00,,,0.17,1.000000,,2013-06-15 11:33:00,
2013-06-15 06:43:00,68.0,67.0,-100.00,North,349,1.0,3.0,97,0.00,,,0.17,1.000000,,2013-06-15 11:43:00,
2013-06-15 06:51:00,69.0,68.0,-100.00,NE,35,1.0,3.0,97,0.00,,,0.00,24.000000,,2013-06-15 11:51:00,
2013-06-15 07:12:00,69.0,68.0,-100.00,NE,35,1.0,3.0,97,0.00,,,0.00,24.000000,,2013-06-15 12:12:00,
2013-06-15 07:22:00,69.0,68.0,-100.00,NE,35,1.0,3.0,97,0.00,,,0.00,24.000000,,2013-06-15 12:22:00,
2013-06-15 07:33:00,69.0,68.0,-100.00,NE,35,1.0,3.0,97,0.00,,,0.00,24.000000,,2013-06-15 12:33:00,
2013-06-15 07:43:00,69.0,68.0,-100.00,NE,35,1.0,3.0,97,0.00,,,0.00,24.000000,,2013-06-15 12:43:00,
2013-06-15 07:51:00,81.0,67.0,-100.00,East,98,3.0,7.0,63,0.00,,,0.00,168.000000,,2013-06-15 12:51:00,
2013-06-15 08:11:00,81.0,67.0,-100.00,East,98,3.0,7.0,63,0.00,,,0.00,168.000000,,2013-06-15 13:11:00,
2013-06-15 08:22:00,81.0,67.0,-100.00,East,98,3.0,7.0,63,0.00,,,0.00,168.000000,,2013-06-15 13:22:00,
2013-06-15 08:32:00,81.0,67.0,-100.00,East,98,3.0,7.0,63,0.00,,,0.00,168.000000,,2013-06-15 13:32:00,
2013-06-15 08:43:00,81.0,67.0,-100.00,East,98,3.0,7.0,63,0.00,,,0.00,168.000000,,2013-06-15 13:43:00,
2013-06-15 08:51:00,83.0,69.0,-100.00,East,101,6.0,9.0,62,0.00,,,0.00,372.000000,,2013-06-15 13:51:00,
2013-06-15 09:12:00,83.0,69.0,-100.00,East,101,6.0,9.0,62,0.00,,,0.00,372.000000,,2013-06-15 14:12:00,
2013-06-15 09:22:00,83.0,69.0,-100.00,East,101,6.0,9.0,62,0.00,,,0.00,372.000000,,2013-06-15 14:22:00,
2013-06-15 09:34:00,83.0,69.0,-100.00,East,101,6.0,9.0,62,0.00,,,0.00,372.000000,,2013-06-15 14:34:00,
2013-06-15 09:43:00,83.0,69.0,-100.00,East,101,6.0,9.0,62,0.00,,,0.00,372.000000,,2013-06-15 14:43:00,
2013-06-15 09:51:00,88.0,70.0,-100.00,ESE,103,4.0,10.0,56,0.00,,,0.00,486.000000,,2013-06-15 14:51:00,
2013-06-15 10:11:00,88.0,70.0,-100.00,ESE,103,4.0,10.0,56,0.00,,,0.00,486.000000,,2013-06-15 15:11:00,
2013-06-15 10:22:00,88.0,70.0,-100.00,ESE,103,4.0,10.0,56,0.00,,,0.00,486.000000,,2013-06-15 15:22:00,
2013-06-15 10:33:00,88.0,70.0,-100.00,ESE,103,4.0,10.0,56,0.00,,,0.00,486.000000,,2013-06-15 15:33:00,
2013-06-15 10:43:00,88.0,70.0,-100.00,ESE,103,4.0,10.0,56,0.00,,,0.00,486.000000,,2013-06-15 15:43:00,
2013-06-15 10:51:00,90.0,71.0,-100.00,SE,130,5.0,11.0,53,0.00,,,0.00,766.000000,,2013-06-15 15:51:00,
2013-06-15 11:11:00,90.0,71.0,-100.00,SE,130,5.0,11.0,53,0.00,,,0.00,766.000000,,2013-06-15 16:11:00,
2013-06-15 11:22:00,90.0,71.0,-100.00,SE,130,5.0,11.0,53,0.00,,,0.00,766.000000,,2013-06-15 16:22:00,
2013-06-15 11:33:00,90.0,71.0,-100.00,SE,130,5.0,11.0,53,0.00,,,0.00,766.000000,,2013-06-15 16:33:00,
2013-06-15 11:43:00,90.0,71.0,-100.00,SE,130,5.0,11.0,53,0.00,,,0.00,766.000000,,2013-06-15 16:43:00,
2013-06-15 11:51:00,89.0,70.0,-100.00,South,173,8.0,14.0,53,0.00,,,0.00,849.000000,,2013-06-15 16:51:00,
2013-06-15 12:12:00,89.0,70.0,-100.00,South,173,8.0,14.0,53,0.00,,,0.00,849.000000,,2013-06-15 17:12:00,
2013-06-15 12:22:00,89.0,70.0,-100.00,South,173,8.0,14.0,53,0.00,,,0.00,849.000000,,2013-06-15 17:22:00,
2013-06-15 12:32:00,89.0,70.0,-100.00,South,173,8.0,14.0,53,0.00,,,0.00,849.000000,,2013-06-15 17:32:00,
2013-06-15 12:43:00,89.0,70.0,-100.00,South,173,8.0,14.0,53,0.00,,,0.00,849.000000,,2013-06-15 17:43:00,
2013-06-15 12:51:00,89.0,72.0,-100.00,South,170,8.0,15.0,58,0.00,,,0.00,913.000000,,2013-06-15 17:51:00,
2013-06-15 13:12:00,89.0,72.0,-100.00,South,170,8.0,15.0,58,0.00,,,0.00,913.000000,,2013-06-15 18:12:00,
2013-06-15 13:22:00,89.0,72.0,-100.00,South,170,8.0,15.0,58,0.00,,,0.00,913.000000,,2013-06-15 18:22:00,
2013-06-15 13:32:00,89.0,72.0,-100.00,South,170,8.0,15.0,58,0.00,,,0.00,913.000000,,2013-06-15 18:32:00,
2013-06-15 13:43:00,89.0,72.0,-100.00,South,170,8.0,15.0,58,0.00,,,0.00,913.000000,,2013-06-15 18:43:00,
2013-06-15 13:51:00,89.0,72.0,-100.00,SSE,150,7.0,15.0,58,0.00,,,0.00,912.000000,,2013-06-15 18:51:00,
2013-06-15 14:12:00,89.0,72.0,-100.00,SSE,150,7.0,15.0,58,0.00,,,0.00,912.000000,,2013-06-15 19:12:00,
2013-06-15 14:22:00,89.0,72.0,-100.00,SSE,150,7.0,15.0,58,0.00,,,0.00,912.000000,,2013-06-15 19:22:00,
2013-06-15 14:33:00,89.0,72.0,-100.00,SSE,150,7.0,15.0,58,0.00,,,0.00,912.000000,,2013-06-15 19:33:00,
2013-06-15 14:43:00,89.0,72.0,-100.00,SSE,150,7.0,15.0,58,0.00,,,0.00,912.000000,,2013-06-15 19:43:00,
2013-06-15 14:51:00,91.0,72.0,-100.00,South,174,4.0,13.0,54,0.00,,,0.00,864.000000,,2013-06-15 19:51:00,
2013-06-15 15:11:00,91.0,72.0,-100.00,South,174,4.0,13.0,54,0.00,,,0.00,864.000000,,2013-06-15 20:11:00,
2013-06-15 15:22:00,91.0,72.0,-100.00,South,174,4.0,13.0,54,0.00,,,0.00,864.000000,,2013-06-15 20:22:00,
2013-06-15 15:33:00,91.0,72.0,-100.00,South,174,4.0,13.0,54,0.00,,,0.00,864.000000,,2013-06-15 20:33:00,
2013-06-15 15:43:00,91.0,72.0,-100.00,South,174,4.0,13.0,54,0.00,,,0.00,864.000000,,2013-06-15 20:43:00,
2013-06-15 15:51:00,90.0,75.0,-100.00,SSE,162,6.0,12.0,61,0.00,,,0.00,768.000000,,2013-06-15 20:51:00,
2013-06-15 16:12:00,90.0,75.0,-100.00,SSE,162,6.0,12.0,61,0.00,,,0.00,768.000000,,2013-06-15 21:12:00,
2013-06-15 16:22:00,90.0,75.0,-100.00,SSE,162,6.0,12.0,61,0.00,,,0.00,768.000000,,2013-06-15 21:22:00,
2013-06-15 16:33:00,90.0,75.0,-100.00,SSE,162,6.0,12.0,61,0.00,,,0.00,768.000000,,2013-06-15 21:33:00,
2013-06-15 16:42:00,90.0,75.0,-100.00,SSE,162,6.0,12.0,61,0.00,,,0.00,768.000000,,2013-06-15 21:42:00,
2013-06-15 16:51:00,89.0,72.0,-100.00,South,169,6.0,13.0,57,0.00,,,0.00,588.000000,,2013-06-15 21:51:00,
2013-06-15 17:11:00,89.0,72.0,-100.00,South,169,6.0,13.0,57,0.00,,,0.00,588.000000,,2013-06-15 22:11:00,
2013-06-15 17:22:00,89.0,72.0,-100.00,South,169,6.0,13.0,57,0.00,,,0.00,588.000000,,2013-06-15 22:22:00,
2013-06-15 17:33:00,89.0,72.0,-100.00,South,169,6.0,13.0,57,0.00,,,0.00,588.000000,,2013-06-15 22:33:00,
2013-06-15 17:42:00,89.0,72.0,-100.00,South,169,6.0,13.0,57,0.00,,,0.00,588.000000,,2013-06-15 22:42:00,
2013-06-15 17:51:00,89.0,75.0,-100.00,South,185,5.0,11.0,63,0.00,,,0.00,428.000000,,2013-06-15 22:51:00,
2013-06-15 18:12:00,89.0,75.0,-100.00,South,185,5.0,11.0,63,0.00,,,0.00,428.000000,,2013-06-15 23:12:00,
2013-06-15 18:22:00,89.0,75.0,-100.00,South,185,5.0,11.0,63,0.00,,,0.00,428.000000,,2013-06-15 23:22:00,
2013-06-15 18:33:00,89.0,75.0,-100.00,South,185,5.0,11.0,63,0.00,,,0.00,428.000000,,2013-06-15 23:33:00,
2013-06-15 18:42:00,89.0,75.0,-100.00,South,185,5.0,11.0,63,0.00,,,0.00,428.000000,,2013-06-15 23:42:00,
2013-06-15 18:51:00,87.0,76.0,-100.00,South,181,5.0,8.0,70,0.00,,,0.00,234.000000,,2013-06-15 23:51:00,
2013-06-15 19:11:00,87.0,76.0,-100.00,South,181,5.0,8.0,70,0.00,,,0.00,234.000000,,2013-06-16 00:11:00,
2013-06-15 19:22:00,87.0,76.0,-100.00,South,181,5.0,8.0,70,0.00,,,0.00,234.000000,,2013-06-16 00:22:00,
2013-06-15 19:34:00,87.0,76.0,-100.00,South,181,5.0,8.0,70,0.00,,,0.00,234.000000,,2013-06-16 00:34:00,
2013-06-15 19:43:00,87.0,76.0,-100.00,South,181,5.0,8.0,70,0.00,,,0.00,234.000000,,2013-06-16 00:43:00,
2013-06-15 19:51:00,84.0,78.0,-100.00,South,178,1.0,7.0,81,0.00,,,0.00,65.000000,,2013-06-16 00:51:00,
2013-06-15 20:11:00,84.0,78.0,-100.00,South,178,1.0,7.0,81,0.00,,,0.00,65.000000,,2013-06-16 01:11:00,
2013-06-15 20:22:00,84.0,78.0,-100.00,South,178,1.0,7.0,81,0.00,,,0.00,65.000000,,2013-06-16 01:22:00,
2013-06-15 20:33:00,84.0,78.0,-100.00,South,178,1.0,7.0,81,0.00,,,0.00,65.000000,,2013-06-16 01:33:00,
2013-06-15 20:42:00,84.0,78.0,-100.00,South,178,1.0,7.0,81,0.00,,,0.00,65.000000,,2013-06-16 01:42:00,
2013-06-15 20:51:00,79.0,77.0,-100.00,NW,316,0.0,2.0,93,0.00,,,0.00,1.000000,,2013-06-16 01:51:00,
2013-06-15 21:12:00,79.0,77.0,-100.00,NW,316,0.0,2.0,93,0.00,,,0.00,1.000000,,2013-06-16 02:12:00,
2013-06-15 21:22:00,79.0,77.0,-100.00,NW,316,0.0,2.0,93,0.00,,,0.00,1.000000,,2013-06-16 02:22:00,
2013-06-15 21:33:00,79.0,77.0,-100.00,NW,316,0.0,2.0,93,0.00,,,0.00,1.000000,,2013-06-16 02:33:00,
2013-06-15 21:43:00,79.0,77.0,-100.00,NW,316,0.0,2.0,93,0.00,,,0.00,1.000000,,2013-06-16 02:43:00,
2013-06-15 21:51:00,78.0,77.0,-100.00,SSE,150,0.0,2.0,97,0.00,,,0.00,0.000000,,2013-06-16 02:51:00,
2013-06-15 22:12:00,78.0,77.0,-100.00,SSE,150,0.0,2.0,97,0.00,,,0.00,0.000000,,2013-06-16 03:12:00,
2013-06-15 22:22:00,78.0,77.0,-100.00,SSE,150,0.0,2.0,97,0.00,,,0.00,0.000000,,2013-06-16 03:22:00,
2013-06-15 22:33:00,78.0,77.0,-100.00,SSE,150,0.0,2.0,97,0.00,,,0.00,0.000000,,2013-06-16 03:33:00,
2013-06-15 22:43:00,78.0,77.0,-100.00,SSE,150,0.0,2.0,97,0.00,,,0.00,0.000000,,2013-06-16 03:43:00,
2013-06-15 22:51:00,76.0,75.0,-100.00,WNW,290,0.0,2.0,98,0.00,,,0.00,0.000000,,2013-06-16 03:51:00,
2013-06-15 23:12:00,76.0,75.0,-100.00,WNW,290,0.0,2.0,98,0.00,,,0.00,0.000000,,2013-06-16 04:12:00,
2013-06-15 23:23:00,76.0,75.0,-100.00,WNW,290,0.0,2.0,98,0.00,,,0.00,0.000000,,2013-06-16 04:23:00,
2013-06-15 23:33:00,76.0,75.0,-100.00,WNW,290,0.0,2.0,98,0.00,,,0.00,0.000000,,2013-06-16 04:33:00,
2013-06-15 23:42:00,76.0,75.0,-100.00,WNW,290,0.0,2.0,98,0.00,,,0.00,0.000000,,2013-06-16 04:42:00,
2013-06-15 23:51:00,75.0,75.0,-100.00,NW,319,0.0,0.0,99,0.00,,,0.00,0.000000,,2013-06-16 04:51:00,